Time;durP1;ratioP1;P1;durP2;ratioP2;P2;SDS_P1;SDS_P2;PMS_P1;PMS_P2;Temp;Humidity;BMP_temperature;BMP_pressure;BME280_temperature;BME280_humidity;BME280_pressure;Samples;Min_cycle;Max_cycle;Signal;HPM_P1;HPM_P2
2020/12/18 00:01:40;;;;;;;14.20;6.97;;;9.00;99.90;;;;;;4923263;29;20174;-78
2020/12/18 00:04:06;;;;;;;14.80;6.97;;;9.00;99.90;;;;;;4924654;29;20182;-78
2020/12/18 00:06:36;;;;;;;11.47;6.43;;;9.00;99.90;;;;;;4923117;29;20595;-80
2020/12/18 00:09:04;;;;;;;10.43;5.77;;;9.00;99.90;;;;;;4925452;29;20170;-81
2020/12/18 00:11:29;;;;;;;11.77;6.43;;;8.90;99.90;;;;;;4923431;29;20546;-78
2020/12/18 00:13:55;;;;;;;9.77;5.93;;;8.90;99.90;;;;;;4923249;29;20253;-79
2020/12/18 00:16:22;;;;;;;13.30;6.53;;;8.90;99.90;;;;;;4924444;29;20176;-79
2020/12/18 00:18:49;;;;;;;11.53;6.10;;;8.90;99.90;;;;;;4925257;29;20284;-79
2020/12/18 00:21:19;;;;;;;11.53;6.60;;;8.90;99.90;;;;;;4922444;29;20191;-80
2020/12/18 00:23:45;;;;;;;15.20;6.07;;;8.90;99.90;;;;;;4927251;29;20185;-80
2020/12/18 00:26:11;;;;;;;12.00;6.03;;;8.90;99.90;;;;;;4924485;29;20193;-77
2020/12/18 00:28:37;;;;;;;12.80;6.07;;;8.90;99.90;;;;;;4910773;29;20218;-80
2020/12/18 00:31:03;;;;;;;13.17;5.77;;;9.00;99.90;;;;;;4909161;29;20662;-79
2020/12/18 00:33:28;;;;;;;10.17;5.60;;;8.70;99.90;;;;;;4909085;29;20170;-77
2020/12/18 00:35:54;;;;;;;10.00;5.17;;;8.90;99.90;;;;;;4907213;29;20665;-79
2020/12/18 00:38:20;;;;;;;12.33;6.07;;;8.90;99.90;;;;;;4905328;29;20218;-80
2020/12/18 00:40:46;;;;;;;14.23;5.20;;;8.90;99.90;;;;;;4906100;29;20207;-78
2020/12/18 00:43:12;;;;;;;12.17;5.20;;;8.90;99.90;;;;;;4902290;29;20182;-78
2020/12/18 00:45:37;;;;;;;11.30;5.60;;;8.90;99.90;;;;;;4904001;29;20166;-80
2020/12/18 00:48:04;;;;;;;12.73;5.10;;;8.90;99.90;;;;;;4903804;29;20566;-81
2020/12/18 00:50:30;;;;;;;12.17;4.53;;;9.10;99.90;;;;;;4904308;29;20179;-79
2020/12/18 00:52:56;;;;;;;12.17;5.23;;;8.90;99.90;;;;;;4904547;29;20177;-78
2020/12/18 00:55:22;;;;;;;10.83;5.07;;;8.90;99.90;;;;;;4904613;29;20170;-79
2020/12/18 00:57:47;;;;;;;13.03;5.87;;;8.90;99.90;;;;;;4903603;29;20541;-81
2020/12/18 01:00:15;;;;;;;10.77;5.07;;;8.90;99.90;;;;;;4905776;29;20566;-78
2020/12/18 01:02:40;;;;;;;12.40;5.60;;;8.90;99.90;;;;;;4905774;29;20178;-80
2020/12/18 01:05:06;;;;;;;10.57;5.20;;;9.00;99.90;;;;;;4903283;29;20529;-79
2020/12/18 01:07:31;;;;;;;12.07;4.90;;;9.10;99.90;;;;;;4887202;29;20186;-79
2020/12/18 01:09:57;;;;;;;12.20;4.83;;;9.00;99.90;;;;;;4904832;29;20244;-79
2020/12/18 01:12:23;;;;;;;11.03;4.83;;;9.00;99.90;;;;;;4906341;29;20191;-80
2020/12/18 01:14:48;;;;;;;10.53;4.70;;;9.00;99.90;;;;;;4905110;29;20175;-80
2020/12/18 01:17:14;;;;;;;8.83;4.80;;;9.00;99.90;;;;;;4905968;29;20186;-81
2020/12/18 01:19:40;;;;;;;17.40;5.03;;;8.90;99.90;;;;;;4903939;29;20234;-79
2020/12/18 01:22:06;;;;;;;12.43;5.37;;;8.90;99.90;;;;;;4904803;29;20174;-79
2020/12/18 01:24:32;;;;;;;9.83;4.73;;;8.90;99.90;;;;;;4905589;29;20234;-77
2020/12/18 01:26:59;;;;;;;13.70;5.10;;;8.90;99.90;;;;;;4903581;29;20187;-79
2020/12/18 01:29:25;;;;;;;9.73;4.53;;;8.90;99.90;;;;;;4903878;29;20184;-77
2020/12/18 01:31:52;;;;;;;14.90;5.00;;;8.90;99.90;;;;;;4903590;29;20207;-79
2020/12/18 01:34:18;;;;;;;12.80;4.80;;;8.90;99.90;;;;;;4903600;29;20174;-78
2020/12/18 01:36:43;;;;;;;9.37;4.47;;;8.90;99.90;;;;;;4905337;29;20183;-80
2020/12/18 01:39:09;;;;;;;10.70;4.33;;;8.90;99.90;;;;;;4904069;29;20229;-80
2020/12/18 01:41:36;;;;;;;9.73;4.33;;;8.90;99.90;;;;;;4903340;29;20186;-80
2020/12/18 01:44:01;;;;;;;8.47;3.83;;;8.90;99.90;;;;;;4905923;29;20170;-78
2020/12/18 01:46:29;;;;;;;8.07;3.97;;;8.90;99.90;;;;;;4907231;29;20227;-78
2020/12/18 01:48:57;;;;;;;13.00;4.17;;;8.90;99.90;;;;;;4910326;29;20582;-78
2020/12/18 01:51:23;;;;;;;11.30;3.80;;;9.00;99.90;;;;;;4906952;29;20170;-78
2020/12/18 01:53:51;;;;;;;5.93;3.40;;;8.90;99.90;;;;;;4905561;29;20645;-78
2020/12/18 01:56:18;;;;;;;9.23;4.00;;;8.90;99.90;;;;;;4905019;29;20171;-79
2020/12/18 01:58:44;;;;;;;14.47;4.10;;;8.90;99.90;;;;;;4914903;29;20179;-78
2020/12/18 02:01:10;;;;;;;9.43;4.23;;;9.00;99.90;;;;;;4919989;29;20182;-78
2020/12/18 02:03:42;;;;;;;8.77;3.70;;;9.00;99.90;;;;;;4911441;29;20181;-79
2020/12/18 02:06:13;;;;;;;9.50;3.80;;;9.00;99.90;;;;;;4905769;29;20170;-78
2020/12/18 02:08:42;;;;;;;9.53;3.40;;;9.10;99.90;;;;;;4907628;29;20166;-79
2020/12/18 02:11:10;;;;;;;10.30;3.47;;;9.10;99.90;;;;;;4907531;29;20185;-79
2020/12/18 02:13:36;;;;;;;8.93;3.87;;;9.00;99.90;;;;;;4909483;29;20238;-78
2020/12/18 02:16:01;;;;;;;10.57;4.20;;;9.00;99.90;;;;;;4917551;29;20189;-78
2020/12/18 02:18:27;;;;;;;8.80;3.20;;;9.00;99.90;;;;;;4921172;29;20202;-78
2020/12/18 02:20:54;;;;;;;12.23;3.70;;;9.20;99.90;;;;;;4922337;29;20167;-78
2020/12/18 02:23:20;;;;;;;7.47;3.20;;;9.10;99.90;;;;;;4920895;29;20264;-78
2020/12/18 02:29:08;;;;;;;9.57;3.60;;;9.10;99.90;;;;;;4904731;29;20169;-79
2020/12/18 02:31:36;;;;;;;11.07;4.03;;;9.10;99.90;;;;;;4903786;29;20258;-79
2020/12/18 02:34:02;;;;;;;14.23;3.67;;;9.10;99.90;;;;;;4906089;29;20167;-80
2020/12/18 02:36:27;;;;;;;8.03;3.77;;;9.10;99.90;;;;;;4904438;29;20237;-78
2020/12/18 02:38:57;;;;;;;12.30;4.13;;;9.10;99.90;;;;;;4904498;29;20225;-78
2020/12/18 02:41:23;;;;;;;9.17;3.20;;;9.10;99.90;;;;;;4903820;29;20202;-78
2020/12/18 02:43:49;;;;;;;9.27;3.30;;;9.10;99.90;;;;;;4910292;29;20189;-80
2020/12/18 02:46:18;;;;;;;9.30;2.80;;;9.10;99.90;;;;;;4908945;29;20756;-79
2020/12/18 02:48:45;;;;;;;9.30;3.77;;;9.00;99.90;;;;;;4906183;29;20174;-79
2020/12/18 02:51:11;;;;;;;7.80;3.17;;;9.00;99.90;;;;;;4907368;29;20185;-80
2020/12/18 02:53:36;;;;;;;9.83;3.83;;;9.10;99.90;;;;;;4908876;29;20174;-80
2020/12/18 02:56:02;;;;;;;8.37;3.17;;;9.00;99.90;;;;;;4906988;29;20278;-80
2020/12/18 02:58:28;;;;;;;9.10;3.40;;;9.00;99.90;;;;;;4907263;29;20218;-78
2020/12/18 03:00:53;;;;;;;9.27;3.77;;;8.90;99.90;;;;;;4906730;29;20584;-79
2020/12/18 03:03:19;;;;;;;9.40;3.27;;;9.00;99.90;;;;;;4907398;29;20174;-80
2020/12/18 03:05:45;;;;;;;6.90;3.30;;;9.00;99.90;;;;;;4904230;29;20585;-80
2020/12/18 03:08:10;;;;;;;13.43;3.10;;;8.90;99.90;;;;;;4905311;29;20170;-77
2020/12/18 03:10:37;;;;;;;7.83;3.43;;;8.90;99.90;;;;;;4904585;29;20546;-79
2020/12/18 03:13:03;;;;;;;9.67;3.10;;;8.90;99.90;;;;;;4904166;29;20167;-77
2020/12/18 03:15:28;;;;;;;9.90;3.37;;;8.90;99.90;;;;;;4903327;29;20197;-77
2020/12/18 03:17:54;;;;;;;6.93;2.97;;;8.90;99.90;;;;;;4903318;29;20170;-79
2020/12/18 03:20:20;;;;;;;8.77;3.20;;;8.90;99.90;;;;;;4904801;29;20178;-80
2020/12/18 03:22:47;;;;;;;7.70;3.13;;;8.90;99.90;;;;;;4903882;29;20277;-77
2020/12/18 03:25:13;;;;;;;8.80;3.10;;;8.90;99.90;;;;;;4905306;29;20234;-79
2020/12/18 03:27:38;;;;;;;6.03;3.20;;;8.90;99.90;;;;;;4903429;29;20174;-80
2020/12/18 03:30:04;;;;;;;9.23;3.40;;;8.80;99.90;;;;;;4908070;29;20197;-80
2020/12/18 03:32:30;;;;;;;8.83;2.93;;;8.90;99.90;;;;;;4910475;29;20175;-81
2020/12/18 03:34:56;;;;;;;10.07;3.23;;;8.80;99.90;;;;;;4906216;29;20253;-78
2020/12/18 03:37:21;;;;;;;8.57;3.00;;;8.80;99.90;;;;;;4903801;29;20170;-79
2020/12/18 03:39:47;;;;;;;8.73;3.50;;;8.90;99.90;;;;;;4903810;29;20305;-79
2020/12/18 03:42:13;;;;;;;8.70;3.30;;;8.80;99.90;;;;;;4904007;29;20214;-80
2020/12/18 03:44:38;;;;;;;9.57;3.60;;;8.80;99.90;;;;;;4903365;29;20178;-78
2020/12/18 03:47:05;;;;;;;13.47;3.30;;;8.90;99.90;;;;;;4902270;29;20185;-79
2020/12/18 03:49:30;;;;;;;12.90;3.93;;;8.80;99.90;;;;;;4901197;29;20182;-77
2020/12/18 03:51:56;;;;;;;9.90;3.80;;;8.80;99.90;;;;;;4905535;29;20241;-78
2020/12/18 03:54:23;;;;;;;10.07;3.70;;;8.80;99.90;;;;;;4905409;29;20201;-77
2020/12/18 03:56:48;;;;;;;8.83;4.00;;;8.80;99.90;;;;;;4900802;29;20178;-78
2020/12/18 03:59:14;;;;;;;7.57;3.90;;;8.90;99.90;;;;;;4901319;29;20222;-79
2020/12/18 04:01:40;;;;;;;8.10;4.23;;;8.80;99.90;;;;;;4901868;29;20174;-80
2020/12/18 04:04:05;;;;;;;16.97;4.80;;;8.90;99.90;;;;;;4902226;29;20177;-79
2020/12/18 04:06:31;;;;;;;10.17;4.50;;;8.90;99.90;;;;;;4902405;29;20542;-80
2020/12/18 04:08:56;;;;;;;9.03;4.53;;;8.90;99.90;;;;;;4906896;29;20221;-79
2020/12/18 04:11:22;;;;;;;9.67;4.87;;;8.90;99.90;;;;;;4901270;29;20265;-79
2020/12/18 04:13:48;;;;;;;11.47;4.90;;;8.90;99.90;;;;;;4901553;29;20186;-80
2020/12/18 04:16:13;;;;;;;10.03;5.03;;;8.90;99.90;;;;;;4900738;29;20302;-80
2020/12/18 04:18:39;;;;;;;9.23;5.10;;;8.90;99.90;;;;;;4900721;29;20202;-80
2020/12/18 04:21:04;;;;;;;11.07;5.37;;;8.90;99.90;;;;;;4900711;29;20186;-78
2020/12/18 04:23:30;;;;;;;13.23;4.70;;;8.90;99.90;;;;;;4900905;29;20177;-77
2020/12/18 04:25:56;;;;;;;10.43;4.90;;;8.90;99.90;;;;;;4900567;29;20250;-78
2020/12/18 04:28:21;;;;;;;12.17;5.27;;;8.90;99.90;;;;;;4899634;29;20326;-79
2020/12/18 04:30:47;;;;;;;11.03;4.40;;;8.90;99.90;;;;;;4900917;29;20202;-79
2020/12/18 04:33:13;;;;;;;10.37;5.03;;;8.90;99.90;;;;;;4899666;29;20273;-80
2020/12/18 04:35:38;;;;;;;8.53;4.87;;;8.90;99.90;;;;;;4900124;29;20180;-79
2020/12/18 04:38:05;;;;;;;11.63;5.33;;;8.90;99.90;;;;;;4901909;29;20206;-81
2020/12/18 04:40:33;;;;;;;11.83;5.27;;;8.80;99.90;;;;;;4906357;29;20648;-81
2020/12/18 04:42:59;;;;;;;11.70;4.73;;;9.00;99.90;;;;;;4914162;29;20163;-78
2020/12/18 04:45:25;;;;;;;9.97;4.50;;;8.80;99.90;;;;;;4921874;29;20182;-78
2020/12/18 04:47:54;;;;;;;8.63;4.57;;;8.90;99.90;;;;;;4919405;29;20234;-77
2020/12/18 04:50:20;;;;;;;9.67;4.97;;;8.90;99.90;;;;;;4919958;29;20166;-79
2020/12/18 04:52:55;;;;;;;11.43;4.90;;;8.90;99.90;;;;;;4920340;29;20159;-77
2020/12/18 04:55:25;;;;;;;9.47;5.23;;;8.90;99.90;;;;;;4902932;29;20170;-78
2020/12/18 04:57:56;;;;;;;10.83;4.30;;;8.90;99.90;;;;;;4901917;29;20167;-80
2020/12/18 05:00:22;;;;;;;7.93;5.13;;;9.00;99.90;;;;;;4901818;29;20174;-81
2020/12/18 05:02:48;;;;;;;9.77;4.97;;;9.00;99.90;;;;;;4905258;29;20174;-78
2020/12/18 05:05:14;;;;;;;11.50;4.90;;;9.10;99.90;;;;;;4921869;29;20189;-81
2020/12/18 05:07:39;;;;;;;9.73;5.00;;;9.30;99.90;;;;;;4921708;29;20555;-79
2020/12/18 05:10:09;;;;;;;9.87;5.07;;;9.20;99.90;;;;;;4921424;29;20162;-78
2020/12/18 05:12:37;;;;;;;12.07;5.30;;;9.10;99.90;;;;;;4909992;29;20182;-78
2020/12/18 05:15:14;;;;;;;12.97;5.17;;;9.20;99.90;;;;;;4900397;29;20627;-81
2020/12/18 05:17:43;;;;;;;10.33;4.67;;;9.20;99.90;;;;;;4900899;29;20638;-78
2020/12/18 05:20:09;;;;;;;10.63;5.23;;;9.20;99.90;;;;;;4899560;29;20229;-79
2020/12/18 05:22:37;;;;;;;9.73;5.63;;;9.30;99.90;;;;;;4897615;29;20182;-77
2020/12/18 05:25:03;;;;;;;7.97;4.97;;;9.30;99.90;;;;;;4898312;29;20230;-80
2020/12/18 05:27:29;;;;;;;14.50;5.43;;;9.30;99.90;;;;;;4899843;29;20175;-78
2020/12/18 05:30:03;;;;;;;10.87;4.60;;;9.30;99.90;;;;;;4899303;29;20202;-77
2020/12/18 05:32:33;;;;;;;10.07;5.13;;;9.30;99.90;;;;;;4897872;29;20538;-79
2020/12/18 05:34:59;;;;;;;9.13;4.33;;;9.40;99.90;;;;;;4898764;29;20174;-78
2020/12/18 05:37:37;;;;;;;10.50;4.67;;;9.40;99.90;;;;;;4898922;29;20698;-78
2020/12/18 05:40:05;;;;;;;8.60;4.57;;;9.40;99.90;;;;;;4897879;29;20225;-77
2020/12/18 05:42:42;;;;;;;11.20;4.60;;;9.40;99.90;;;;;;4897968;29;20167;-77
2020/12/18 05:45:13;;;;;;;8.33;4.30;;;9.50;99.90;;;;;;4898613;29;20189;-77
2020/12/18 05:48:13;;;;;;;9.50;4.97;;;9.50;99.90;;;;;;4897904;29;20174;-79
2020/12/18 05:50:39;;;;;;;11.07;5.67;;;9.50;99.90;;;;;;4897639;29;20202;-80
2020/12/18 05:53:06;;;;;;;11.13;4.50;;;9.40;99.90;;;;;;4898762;29;20175;-79
2020/12/18 05:55:36;;;;;;;11.93;4.40;;;9.50;99.90;;;;;;4898834;29;20252;-79
2020/12/18 05:58:02;;;;;;;9.83;4.70;;;9.50;99.90;;;;;;4898407;29;20230;-77
2020/12/18 06:00:28;;;;;;;12.50;5.03;;;9.50;99.90;;;;;;4898456;29;20174;-79
2020/12/18 06:03:00;;;;;;;11.40;4.23;;;9.60;99.90;;;;;;4898692;29;20202;-77
2020/12/18 06:05:26;;;;;;;8.27;4.37;;;9.60;99.90;;;;;;4897161;29;20178;-78
2020/12/18 06:07:53;;;;;;;7.17;4.37;;;9.50;99.90;;;;;;4897905;29;20170;-77
2020/12/18 06:10:24;;;;;;;9.67;4.40;;;9.60;99.90;;;;;;4897272;29;20178;-79
2020/12/18 06:12:59;;;;;;;8.80;4.83;;;9.60;99.90;;;;;;4898203;29;20171;-77
2020/12/18 06:15:26;;;;;;;10.23;4.80;;;9.50;99.90;;;;;;4897687;29;20237;-79
2020/12/18 06:17:52;;;;;;;9.30;4.90;;;9.50;99.90;;;;;;4899134;29;20257;-82
2020/12/18 06:20:19;;;;;;;10.77;4.70;;;9.60;99.90;;;;;;4907802;29;20177;-78
2020/12/18 06:23:04;;;;;;;9.97;5.13;;;9.60;99.90;;;;;;4921463;29;20174;-78
2020/12/18 06:25:32;;;;;;;9.87;4.90;;;9.60;99.90;;;;;;4921280;29;20257;-79
2020/12/18 06:28:00;;;;;;;9.70;5.17;;;9.60;99.90;;;;;;4920520;29;20178;-78
2020/12/18 06:30:26;;;;;;;9.43;5.17;;;9.60;99.90;;;;;;4920486;29;20193;-79
2020/12/18 06:32:53;;;;;;;11.23;4.87;;;9.60;99.90;;;;;;4921108;29;20178;-79
2020/12/18 06:35:25;;;;;;;12.70;5.70;;;9.60;99.90;;;;;;4920191;29;20237;-79
2020/12/18 06:37:51;;;;;;;9.10;5.10;;;9.70;99.90;;;;;;4921068;29;20194;-80
2020/12/18 06:40:28;;;;;;;13.83;5.73;;;9.70;99.90;;;;;;4921084;29;20688;-79
2020/12/18 06:42:56;;;;;;;11.87;5.47;;;9.70;99.90;;;;;;4922641;29;20539;-79
2020/12/18 06:45:22;;;;;;;10.47;5.77;;;9.70;99.90;;;;;;4919597;29;20170;-79
2020/12/18 06:47:47;;;;;;;12.73;5.97;;;9.70;99.90;;;;;;4920701;29;20253;-79
2020/12/18 06:50:17;;;;;;;11.67;5.37;;;9.70;99.90;;;;;;4920917;29;20326;-78
2020/12/18 06:52:47;;;;;;;9.67;5.23;;;9.70;99.90;;;;;;4922677;29;20177;-79
2020/12/18 06:55:25;;;;;;;8.97;5.10;;;9.70;99.90;;;;;;4921566;29;20206;-80
2020/12/18 06:58:07;;;;;;;9.63;5.10;;;9.80;99.90;;;;;;4920627;29;20297;-80
2020/12/18 07:00:42;;;;;;;10.13;6.07;;;9.80;99.90;;;;;;4921560;29;20181;-81
2020/12/18 07:03:09;;;;;;;9.57;5.27;;;9.80;99.90;;;;;;4920098;29;20256;-79
2020/12/18 07:05:41;;;;;;;10.37;5.43;;;9.80;99.90;;;;;;4910185;29;20184;-79
2020/12/18 07:08:13;;;;;;;12.83;5.03;;;9.80;99.90;;;;;;4900410;29;20518;-79
2020/12/18 07:10:45;;;;;;;10.43;5.13;;;9.90;99.90;;;;;;4901886;29;20531;-78
2020/12/18 07:13:18;;;;;;;10.03;5.17;;;9.90;99.90;;;;;;4899846;29;20189;-78
2020/12/18 07:15:46;;;;;;;12.40;5.07;;;9.90;99.90;;;;;;4901360;29;20159;-78
2020/12/18 07:18:23;;;;;;;8.47;5.07;;;9.90;99.90;;;;;;4901317;29;20163;-78
2020/12/18 07:21:06;;;;;;;11.50;4.80;;;9.90;99.90;;;;;;4901725;29;20193;-79
2020/12/18 07:23:34;;;;;;;12.83;5.30;;;9.80;99.90;;;;;;4901126;29;20174;-79
2020/12/18 07:26:02;;;;;;;11.23;4.67;;;9.90;99.90;;;;;;4901206;29;20183;-83
2020/12/18 07:28:28;;;;;;;11.77;4.80;;;10.00;99.90;;;;;;4900986;29;20307;-77
2020/12/18 07:30:55;;;;;;;11.20;4.93;;;10.00;99.90;;;;;;4918666;29;20233;-80
2020/12/18 07:33:21;;;;;;;11.23;5.30;;;10.00;99.90;;;;;;4923796;29;20193;-78
2020/12/18 07:35:55;;;;;;;12.70;4.77;;;10.00;99.90;;;;;;4924229;29;20264;-82
2020/12/18 07:38:23;;;;;;;11.60;4.47;;;10.00;99.90;;;;;;4917489;29;20221;-78
2020/12/18 07:40:52;;;;;;;9.23;4.43;;;10.10;99.90;;;;;;4921414;29;20205;-78
2020/12/18 07:43:20;;;;;;;12.10;4.77;;;10.10;99.90;;;;;;4917916;29;20265;-81
2020/12/18 07:45:49;;;;;;;12.20;4.60;;;10.20;99.90;;;;;;4915999;29;20190;-82
2020/12/18 07:48:20;;;;;;;8.10;4.37;;;10.10;99.90;;;;;;4917874;29;20759;-79
2020/12/18 07:50:59;;;;;;;10.70;4.50;;;10.10;99.90;;;;;;4918892;29;20190;-78
2020/12/18 07:53:26;;;;;;;8.50;4.03;;;10.10;99.90;;;;;;4915543;29;20271;-79
2020/12/18 07:56:13;;;;;;;9.77;4.20;;;10.10;99.90;;;;;;4918330;29;20601;-80
2020/12/18 07:59:00;;;;;;;11.43;4.87;;;10.10;99.90;;;;;;4906989;29;20635;-79
2020/12/18 08:01:29;;;;;;;14.90;5.33;;;10.10;99.90;;;;;;4910548;29;20185;-79
2020/12/18 08:04:00;;;;;;;18.37;4.17;;;10.10;99.90;;;;;;4917390;29;20212;-80
2020/12/18 08:06:28;;;;;;;12.30;4.13;;;10.10;99.90;;;;;;4903559;29;20610;-79
2020/12/18 08:08:58;;;;;;;10.73;4.40;;;10.30;99.90;;;;;;4925053;29;20170;-80
2020/12/18 08:11:26;;;;;;;12.73;4.30;;;10.10;99.90;;;;;;4936557;28;20186;-80
2020/12/18 08:13:54;;;;;;;10.83;3.97;;;10.00;99.90;;;;;;4937040;28;20174;-80
2020/12/18 08:16:24;;;;;;;8.67;4.30;;;10.00;99.90;;;;;;4940466;28;20169;-78
2020/12/18 08:18:57;;;;;;;11.37;4.33;;;10.00;99.90;;;;;;4940861;28;20205;-78
2020/12/18 08:21:44;;;;;;;10.30;4.10;;;10.00;99.90;;;;;;4921123;29;20174;-81
2020/12/18 08:24:13;;;;;;;11.73;3.67;;;10.10;99.90;;;;;;4921559;29;20535;-79
2020/12/18 08:26:50;;;;;;;12.37;4.60;;;10.00;99.90;;;;;;4921069;29;20177;-82
2020/12/18 08:29:18;;;;;;;9.47;4.20;;;10.10;99.90;;;;;;4933377;28;20181;-78
2020/12/18 08:31:46;;;;;;;9.10;3.57;;;10.10;99.90;;;;;;4941219;28;20239;-80
2020/12/18 08:34:14;;;;;;;10.73;4.37;;;10.10;99.90;;;;;;4939933;28;20233;-80
2020/12/18 08:36:46;;;;;;;8.83;3.90;;;10.10;99.90;;;;;;4939883;28;20166;-79
2020/12/18 08:39:15;;;;;;;8.20;3.20;;;10.20;99.90;;;;;;4937661;29;20221;-77
2020/12/18 08:41:54;;;;;;;12.80;3.97;;;10.10;99.90;;;;;;4925534;29;20181;-80
2020/12/18 08:44:48;;;;;;;7.60;3.50;;;10.10;99.90;;;;;;4920405;29;20494;-80
2020/12/18 08:47:26;;;;;;;10.20;3.60;;;10.10;99.90;;;;;;4919535;29;20546;-79
2020/12/18 08:49:57;;;;;;;9.90;3.87;;;10.10;99.90;;;;;;4919574;29;20646;-79
2020/12/18 08:52:25;;;;;;;8.00;3.80;;;10.10;99.90;;;;;;4917532;29;20169;-79
2020/12/18 08:55:05;;;;;;;8.63;3.80;;;10.20;99.90;;;;;;4919754;29;20279;-81
2020/12/18 08:57:31;;;;;;;9.60;3.77;;;10.20;99.90;;;;;;4920491;29;20178;-80
2020/12/18 09:00:07;;;;;;;11.87;3.87;;;10.20;99.90;;;;;;4921126;29;20682;-80
2020/12/18 09:02:35;;;;;;;8.23;3.83;;;10.30;99.90;;;;;;4918575;29;20201;-78
2020/12/18 09:05:17;;;;;;;9.97;3.67;;;10.30;99.90;;;;;;4939333;28;20165;-80
2020/12/18 09:07:55;;;;;;;9.43;3.40;;;10.30;99.90;;;;;;4939863;28;20170;-80
2020/12/18 09:10:27;;;;;;;7.47;3.60;;;10.30;99.90;;;;;;4940507;28;20201;-81
2020/12/18 09:12:54;;;;;;;12.37;3.33;;;10.40;99.90;;;;;;4938351;28;20178;-82
2020/12/18 09:15:31;;;;;;;11.73;4.13;;;10.40;99.90;;;;;;4936093;29;20190;-79
2020/12/18 09:18:01;;;;;;;9.60;3.90;;;10.30;99.90;;;;;;4919734;29;20177;-81
2020/12/18 09:20:41;;;;;;;7.60;3.20;;;10.40;99.90;;;;;;4920591;29;20189;-80
2020/12/18 09:23:10;;;;;;;6.90;3.03;;;10.40;99.90;;;;;;4923153;29;20174;-82
2020/12/18 09:25:40;;;;;;;12.27;3.47;;;10.50;99.90;;;;;;4920802;29;20200;-83
2020/12/18 09:28:13;;;;;;;8.37;3.60;;;10.50;99.90;;;;;;4919633;29;20721;-77
2020/12/18 09:30:39;;;;;;;10.37;3.73;;;10.60;99.90;;;;;;4904618;29;20574;-80
2020/12/18 09:33:14;;;;;;;11.63;3.97;;;10.70;99.90;;;;;;4920966;29;20186;-80
2020/12/18 09:35:42;;;;;;;9.03;3.47;;;10.70;99.90;;;;;;4922304;29;20189;-80
2020/12/18 09:38:10;;;;;;;7.67;2.90;;;10.80;99.90;;;;;;4929097;29;20198;-80
2020/12/18 09:40:37;;;;;;;10.70;3.07;;;10.80;99.90;;;;;;4925058;29;20189;-80
2020/12/18 09:43:04;;;;;;;8.57;3.23;;;11.00;99.90;;;;;;4929577;29;20178;-81
2020/12/18 09:45:29;;;;;;;9.67;3.53;;;10.90;99.90;;;;;;4926559;29;20184;-80
2020/12/18 09:47:59;;;;;;;7.33;3.37;;;10.90;99.90;;;;;;4922811;29;20174;-82
2020/12/18 09:50:24;;;;;;;7.93;3.00;;;11.00;99.90;;;;;;4924600;29;20229;-80
2020/12/18 09:52:50;;;;;;;7.83;2.87;;;11.00;99.90;;;;;;4928262;29;20173;-79
2020/12/18 09:55:17;;;;;;;7.70;2.90;;;11.10;99.90;;;;;;4922618;29;20712;-80
2020/12/18 09:57:42;;;;;;;5.97;3.67;;;11.00;99.90;;;;;;4921759;29;20256;-78
2020/12/18 10:00:08;;;;;;;7.00;2.60;;;11.00;99.90;;;;;;4923198;29;20221;-80
2020/12/18 10:02:35;;;;;;;9.13;2.77;;;11.00;99.90;;;;;;4925248;29;20170;-80
2020/12/18 10:05:02;;;;;;;4.50;2.80;;;11.10;99.90;;;;;;4924162;29;20185;-81
2020/12/18 10:07:28;;;;;;;7.07;2.57;;;11.10;99.90;;;;;;4924548;29;20649;-82
2020/12/18 10:09:53;;;;;;;7.17;2.60;;;11.20;99.90;;;;;;4922800;29;20277;-79
2020/12/18 10:12:19;;;;;;;6.47;2.37;;;11.20;99.90;;;;;;4923213;29;20209;-81
2020/12/18 10:14:45;;;;;;;8.67;2.60;;;11.20;99.90;;;;;;4923702;29;20170;-80
2020/12/18 10:17:10;;;;;;;8.63;2.87;;;11.30;99.90;;;;;;4925845;29;20174;-79
2020/12/18 10:19:36;;;;;;;8.43;3.03;;;11.30;99.90;;;;;;4922867;29;20708;-78
2020/12/18 10:22:03;;;;;;;7.20;2.93;;;11.30;99.90;;;;;;4920816;29;20313;-80
2020/12/18 10:24:28;;;;;;;8.37;2.70;;;11.40;99.90;;;;;;4919752;29;20170;-79
2020/12/18 10:26:54;;;;;;;10.30;3.23;;;11.40;99.90;;;;;;4920482;29;20594;-79
2020/12/18 10:29:19;;;;;;;5.17;2.60;;;11.50;99.90;;;;;;4918683;29;20173;-80
2020/12/18 10:31:45;;;;;;;8.57;2.97;;;11.50;99.90;;;;;;4920392;29;20178;-80
2020/12/18 10:34:11;;;;;;;8.97;2.30;;;11.50;99.90;;;;;;4920346;29;20177;-80
2020/12/18 10:36:36;;;;;;;8.53;2.87;;;11.60;99.90;;;;;;4920785;29;20170;-80
2020/12/18 10:39:02;;;;;;;6.43;2.10;;;11.60;99.90;;;;;;4919461;29;20217;-83
2020/12/18 10:41:28;;;;;;;5.57;2.40;;;11.60;99.90;;;;;;4920406;29;20601;-81
2020/12/18 10:43:54;;;;;;;3.73;2.30;;;11.60;99.90;;;;;;4920270;29;20256;-80
2020/12/18 10:46:20;;;;;;;6.50;2.20;;;11.70;99.90;;;;;;4920485;29;20174;-79
2020/12/18 10:48:46;;;;;;;5.73;2.30;;;11.70;99.90;;;;;;4920246;29;20272;-81
2020/12/18 10:51:11;;;;;;;5.07;2.77;;;11.70;99.90;;;;;;4920691;29;20198;-80
2020/12/18 10:53:37;;;;;;;6.97;2.27;;;11.80;99.90;;;;;;4920053;29;20170;-79
2020/12/18 10:56:02;;;;;;;5.43;2.37;;;11.80;99.90;;;;;;4919909;29;20189;-80
2020/12/18 10:58:28;;;;;;;7.17;2.57;;;12.00;99.90;;;;;;4919694;29;20256;-79
2020/12/18 11:00:54;;;;;;;5.30;2.20;;;12.00;99.90;;;;;;4920297;29;20185;-81
2020/12/18 11:03:19;;;;;;;5.10;2.53;;;12.10;99.90;;;;;;4919135;29;20268;-80
2020/12/18 11:05:45;;;;;;;7.47;2.57;;;12.30;99.90;;;;;;4921354;29;20668;-81
2020/12/18 11:08:10;;;;;;;4.73;2.37;;;12.20;99.90;;;;;;4920606;29;20253;-81
2020/12/18 11:10:37;;;;;;;5.20;2.70;;;12.20;99.90;;;;;;4920284;29;20185;-81
2020/12/18 11:13:03;;;;;;;6.50;2.17;;;12.30;99.90;;;;;;4921672;29;20173;-79
2020/12/18 11:15:28;;;;;;;5.23;2.10;;;12.30;99.90;;;;;;4919786;29;20182;-79
2020/12/18 11:17:56;;;;;;;4.13;2.00;;;12.30;99.90;;;;;;4920055;29;20182;-79
2020/12/18 11:20:22;;;;;;;4.50;1.80;;;12.40;99.90;;;;;;4918524;29;20231;-81
2020/12/18 11:22:47;;;;;;;5.43;1.67;;;12.40;99.90;;;;;;4919612;29;20181;-81
2020/12/18 11:25:14;;;;;;;5.53;2.47;;;12.40;99.90;;;;;;4919419;29;20185;-80
2020/12/18 11:27:40;;;;;;;4.33;2.20;;;12.40;99.90;;;;;;4919180;29;20615;-80
2020/12/18 11:30:06;;;;;;;7.27;2.27;;;12.40;99.90;;;;;;4919079;29;20619;-80
2020/12/18 11:32:32;;;;;;;4.67;2.10;;;12.40;99.90;;;;;;4919073;29;20186;-80
2020/12/18 11:34:57;;;;;;;3.97;1.73;;;12.40;99.90;;;;;;4920041;29;20197;-81
2020/12/18 11:37:23;;;;;;;6.80;2.13;;;12.40;99.90;;;;;;4918924;29;20661;-82
2020/12/18 11:39:48;;;;;;;4.70;1.80;;;12.50;99.90;;;;;;4918498;29;20359;-79
2020/12/18 11:42:14;;;;;;;4.77;2.10;;;12.50;99.90;;;;;;4918650;29;20173;-80
2020/12/18 11:44:40;;;;;;;5.20;1.90;;;12.60;99.90;;;;;;4917546;29;20660;-80
2020/12/18 11:47:07;;;;;;;5.40;1.67;;;12.60;99.90;;;;;;4919183;29;20174;-79
2020/12/18 11:49:32;;;;;;;4.47;1.33;;;12.80;99.90;;;;;;4917940;29;20224;-80
2020/12/18 11:51:58;;;;;;;6.70;1.90;;;12.70;99.90;;;;;;4918952;29;20257;-79
2020/12/18 11:54:23;;;;;;;5.80;1.93;;;12.70;99.90;;;;;;4921135;29;20174;-80
2020/12/18 11:56:51;;;;;;;5.20;2.00;;;12.80;99.90;;;;;;4921402;29;20630;-80
2020/12/18 11:59:17;;;;;;;4.90;1.50;;;12.90;99.90;;;;;;4919525;29;20246;-80
2020/12/18 12:01:44;;;;;;;4.90;1.87;;;12.90;99.90;;;;;;4922193;29;20174;-80
2020/12/18 12:04:10;;;;;;;8.03;3.20;;;13.00;99.90;;;;;;4924349;29;20181;-79
2020/12/18 12:06:35;;;;;;;5.70;2.20;;;12.90;99.90;;;;;;4922664;29;20178;-80
2020/12/18 12:09:04;;;;;;;7.53;1.80;;;12.90;99.90;;;;;;4921511;29;20519;-79
2020/12/18 12:11:39;;;;;;;3.70;1.80;;;12.90;99.90;;;;;;4921241;29;20579;-80
2020/12/18 12:14:06;;;;;;;8.10;2.50;;;13.00;99.90;;;;;;4919863;29;20166;-80
2020/12/18 12:16:36;;;;;;;7.80;3.57;;;13.00;99.90;;;;;;4922658;29;20170;-82
2020/12/18 12:19:03;;;;;;;7.73;3.13;;;13.00;99.90;;;;;;4922357;29;20244;-79
2020/12/18 12:21:36;;;;;;;6.70;2.70;;;13.10;99.90;;;;;;4921690;29;20174;-81
2020/12/18 12:24:03;;;;;;;2.80;1.53;;;13.10;99.90;;;;;;4923037;29;20177;-79
2020/12/18 12:26:29;;;;;;;4.47;1.57;;;13.20;99.90;;;;;;4926961;29;20186;-78
2020/12/18 12:28:55;;;;;;;4.33;1.40;;;13.00;99.90;;;;;;4929098;29;20192;-79
2020/12/18 12:31:21;;;;;;;3.47;1.90;;;13.10;99.90;;;;;;4926617;29;20166;-81
2020/12/18 12:33:47;;;;;;;4.57;1.80;;;13.10;99.90;;;;;;4910791;29;20242;-79
2020/12/18 12:36:24;;;;;;;3.83;1.80;;;13.10;99.90;;;;;;4890167;29;20183;-81
2020/12/18 12:38:50;;;;;;;8.90;1.80;;;13.00;99.90;;;;;;4910573;29;20249;-80
2020/12/18 12:41:17;;;;;;;5.53;1.47;;;13.00;99.90;;;;;;4918701;29;20296;-79
2020/12/18 12:43:43;;;;;;;5.47;1.80;;;13.00;99.90;;;;;;4919329;29;20181;-81
2020/12/18 12:46:09;;;;;;;3.67;1.30;;;13.10;99.90;;;;;;4920753;29;20182;-81
2020/12/18 12:48:35;;;;;;;7.00;2.10;;;13.10;99.90;;;;;;4918794;29;20638;-80
2020/12/18 12:51:01;;;;;;;3.70;1.43;;;13.10;99.90;;;;;;4917872;29;20260;-81
2020/12/18 12:53:27;;;;;;;3.90;1.40;;;13.10;99.90;;;;;;4917463;29;20269;-79
2020/12/18 12:55:53;;;;;;;4.57;1.33;;;13.20;99.90;;;;;;4918736;29;20634;-78